createdAt,value
2019-05-17T00:03:47.169Z,13.10
2019-05-17T00:08:07.739Z,13.10
2019-05-17T00:12:27.118Z,13.10
2019-05-17T00:16:46.949Z,13.00
2019-05-17T00:21:07.547Z,13.00
2019-05-17T00:25:27.207Z,12.90
2019-05-17T00:29:46.517Z,12.90
2019-05-17T00:34:07.315Z,12.80
2019-05-17T00:38:27.421Z,12.80
2019-05-17T00:42:46.687Z,12.70
2019-05-17T00:47:06.502Z,12.60
2019-05-17T00:51:27.414Z,12.60
2019-05-17T00:55:46.690Z,12.50
2019-05-17T01:00:05.421Z,12.50
2019-05-17T01:04:23.759Z,12.50
2019-05-17T01:08:41.787Z,12.40
2019-05-17T01:13:00.131Z,12.40
2019-05-17T01:17:18.204Z,12.30
2019-05-17T01:21:36.772Z,12.30
2019-05-17T01:25:56.714Z,12.20
2019-05-17T01:30:17.258Z,12.20
2019-05-17T01:34:37.407Z,12.10
2019-05-17T01:38:57.417Z,12.10
2019-05-17T01:43:16.540Z,12.00
2019-05-17T01:47:36.593Z,12.00
2019-05-17T01:51:56.778Z,11.90
2019-05-17T01:56:16.831Z,11.90
2019-05-17T02:00:37.292Z,11.80
2019-05-17T02:04:56.858Z,11.80
2019-05-17T02:09:20.479Z,11.80
2019-05-17T02:13:34.200Z,11.80
2019-05-17T02:17:52.541Z,11.70
2019-05-17T02:22:10.845Z,11.70
2019-05-17T02:26:28.851Z,11.70
2019-05-17T02:30:47.068Z,11.60
2019-05-17T02:35:06.322Z,11.60
2019-05-17T02:39:24.372Z,11.50
2019-05-17T02:43:43.373Z,11.50
2019-05-17T02:48:03.585Z,11.40
2019-05-17T02:52:23.016Z,11.40
2019-05-17T02:56:43.545Z,11.40
2019-05-17T03:01:03.692Z,11.30
2019-05-17T03:05:23.233Z,11.30
2019-05-17T03:09:43.140Z,11.30
2019-05-17T03:14:04.081Z,11.30
2019-05-17T03:18:22.863Z,11.20
2019-05-17T03:22:44.122Z,11.20
2019-05-17T03:27:03.047Z,11.20
2019-05-17T03:31:26.585Z,11.10
2019-05-17T03:35:45.945Z,11.10
2019-05-17T03:40:04.601Z,11.10
2019-05-17T03:44:22.589Z,11.00
2019-05-17T03:48:43.505Z,11.00
2019-05-17T03:53:02.436Z,11.00
2019-05-17T03:57:23.820Z,11.00
2019-05-17T04:01:43.302Z,10.90
2019-05-17T04:06:03.581Z,10.90
2019-05-17T04:10:22.796Z,11.00
2019-05-17T04:14:42.783Z,11.10
2019-05-17T04:19:02.796Z,11.30
2019-05-17T04:23:23.014Z,11.60
2019-05-17T04:27:43.162Z,12.00
2019-05-17T04:31:59.200Z,12.30
2019-05-17T04:36:17.619Z,12.60
2019-05-17T04:40:36.081Z,12.90
2019-05-17T04:44:54.300Z,13.40
2019-05-17T04:49:13.816Z,13.80
2019-05-17T04:53:33.064Z,14.30
2019-05-17T04:57:52.969Z,14.80
2019-05-17T05:02:13.173Z,15.40
2019-05-17T05:06:33.153Z,15.90
2019-05-17T05:11:08.633Z,16.40
2019-05-17T05:15:44.932Z,16.90
2019-05-17T05:20:22.165Z,17.40
2019-05-17T05:24:57.859Z,17.90
2019-05-17T05:29:33.598Z,18.50
2019-05-17T05:34:09.431Z,19.00
2019-05-17T05:38:44.936Z,19.50
2019-05-17T05:43:22.600Z,20.00
2019-05-17T05:48:01.648Z,20.50
2019-05-17T05:52:37.278Z,21.10
2019-05-17T05:57:12.836Z,21.60
2019-05-17T06:01:32.639Z,22.20
2019-05-17T06:05:52.552Z,22.60
2019-05-17T06:10:13.105Z,23.10
2019-05-17T06:14:32.435Z,23.60
2019-05-17T06:18:51.647Z,24.00
2019-05-17T06:23:12.374Z,24.40
2019-05-17T06:27:32.121Z,24.80
2019-05-17T06:31:51.847Z,25.30
2019-05-17T06:36:13.710Z,25.60
2019-05-17T06:40:32.339Z,26.00
2019-05-17T06:44:52.433Z,26.40
2019-05-17T06:49:11.758Z,26.80
2019-05-17T06:53:32.139Z,27.10
2019-05-17T06:57:49.717Z,27.20
2019-05-17T07:02:10.365Z,27.30
2019-05-17T07:06:29.738Z,27.50
2019-05-17T07:10:50.118Z,27.70
2019-05-17T07:15:10.584Z,27.90
2019-05-17T07:19:30.274Z,28.00
2019-05-17T07:23:49.892Z,28.00
2019-05-17T07:28:09.971Z,28.20
2019-05-17T07:32:29.740Z,28.30
2019-05-17T07:36:50.180Z,28.30
2019-05-17T07:41:09.940Z,28.20
2019-05-17T07:45:29.508Z,28.20
2019-05-17T07:49:49.357Z,28.30
2019-05-17T07:54:07.440Z,28.40
2019-05-17T07:58:25.788Z,28.50
2019-05-17T08:02:43.868Z,28.60
2019-05-17T08:07:01.928Z,28.70
2019-05-17T08:11:20.260Z,28.80
2019-05-17T08:15:39.768Z,28.90
2019-05-17T08:20:00.331Z,29.10
2019-05-17T08:24:19.607Z,29.30
2019-05-17T08:28:40.193Z,29.40
2019-05-17T08:33:00.753Z,29.60
2019-05-17T08:37:20.430Z,29.70
2019-05-17T08:41:40.500Z,29.90
2019-05-17T08:46:01.600Z,29.90
2019-05-17T08:50:20.092Z,29.90
2019-05-17T08:54:42.682Z,29.90
2019-05-17T08:59:00.704Z,29.90
2019-05-17T09:03:19.614Z,30.10
2019-05-17T09:07:55.244Z,30.20
2019-05-17T09:12:16.964Z,30.30
2019-05-17T09:16:35.586Z,30.30
2019-05-17T09:20:54.442Z,30.30
2019-05-17T09:25:18.934Z,30.30
2019-05-17T09:29:40.212Z,30.40
2019-05-17T09:34:00.263Z,30.50
2019-05-17T09:38:20.501Z,30.70
2019-05-17T09:42:41.115Z,30.70
2019-05-17T09:46:59.694Z,30.80
2019-05-17T09:51:19.598Z,30.80
2019-05-17T09:55:39.688Z,30.80
2019-05-17T10:00:00.126Z,31.00
2019-05-17T10:04:19.864Z,31.00
2019-05-17T10:08:39.414Z,31.00
2019-05-17T10:13:00.091Z,31.00
2019-05-17T10:17:21.019Z,31.10
2019-05-17T10:21:39.900Z,31.10
2019-05-17T10:25:59.562Z,31.10
2019-05-17T10:30:20.746Z,31.20
2019-05-17T10:34:40.129Z,31.30
2019-05-17T10:38:59.284Z,31.30
2019-05-17T10:43:17.403Z,31.30
2019-05-17T10:47:35.701Z,31.50
2019-05-17T10:51:54.113Z,31.60
2019-05-17T10:56:16.539Z,31.70
2019-05-17T11:00:35.001Z,31.70
2019-05-17T11:04:53.437Z,31.70
2019-05-17T11:09:11.478Z,31.70
2019-05-17T11:13:30.241Z,31.80
2019-05-17T11:17:48.337Z,31.80
2019-05-17T11:22:06.529Z,31.70
2019-05-17T11:26:24.657Z,31.60
2019-05-17T11:30:42.976Z,31.60
2019-05-17T11:35:01.568Z,31.60
2019-05-17T11:39:20.649Z,31.80
2019-05-17T11:43:38.761Z,31.90
2019-05-17T11:47:57.532Z,31.90
2019-05-17T11:52:15.620Z,32.00
2019-05-17T11:56:34.434Z,32.10
2019-05-17T12:00:53.448Z,32.30
2019-05-17T12:05:11.824Z,32.30
2019-05-17T12:09:37.367Z,32.40
2019-05-17T12:13:50.349Z,32.40
2019-05-17T12:18:08.514Z,32.40
2019-05-17T12:22:26.520Z,32.40
2019-05-17T12:26:47.455Z,32.40
2019-05-17T12:31:04.551Z,32.10
2019-05-17T12:35:23.382Z,31.70
2019-05-17T12:39:41.676Z,31.30
2019-05-17T12:44:00.188Z,31.00
2019-05-17T12:48:18.470Z,30.80
2019-05-17T12:52:36.857Z,30.80
2019-05-17T12:56:55.187Z,30.80
2019-05-17T13:01:13.329Z,30.80
2019-05-17T13:05:31.638Z,30.80
2019-05-17T13:09:49.920Z,30.60
2019-05-17T13:14:08.250Z,30.50
2019-05-17T13:18:27.503Z,30.20
2019-05-17T13:22:48.385Z,30.10
2019-05-17T13:27:07.180Z,30.00
2019-05-17T13:31:25.562Z,29.90
2019-05-17T13:35:48.306Z,29.80
2019-05-17T13:40:16.935Z,29.60
2019-05-17T13:44:41.004Z,29.50
2019-05-17T13:49:02.562Z,29.40
2019-05-17T13:53:21.527Z,29.40
2019-05-17T13:57:39.779Z,29.20
2019-05-17T14:01:57.875Z,28.90
2019-05-17T14:06:16.190Z,28.50
2019-05-17T14:10:34.335Z,28.10
2019-05-17T14:14:52.397Z,27.80
2019-05-17T14:19:10.680Z,27.50
2019-05-17T14:23:29.035Z,27.30
2019-05-17T14:27:48.585Z,27.10
2019-05-17T14:32:07.524Z,26.90
2019-05-17T14:36:25.946Z,26.70
2019-05-17T14:41:05.477Z,26.50
2019-05-17T14:45:04.551Z,26.40
2019-05-17T14:49:22.645Z,26.30
2019-05-17T14:53:40.737Z,26.30
2019-05-17T14:57:59.054Z,26.00
2019-05-17T15:02:17.122Z,25.60
2019-05-17T15:06:35.594Z,25.10
2019-05-17T15:10:53.684Z,24.50
2019-05-17T15:15:13.717Z,24.10
2019-05-17T15:19:31.899Z,23.80
2019-05-17T15:23:50.308Z,23.60
2019-05-17T15:28:10.316Z,23.50
2019-05-17T15:32:28.946Z,23.60
2019-05-17T15:36:47.088Z,23.50
2019-05-17T15:41:05.400Z,23.40
2019-05-17T15:45:23.697Z,23.20
2019-05-17T15:49:41.721Z,23.00
2019-05-17T15:53:59.772Z,22.90
2019-05-17T15:58:17.971Z,22.70
2019-05-17T16:02:36.226Z,22.50
2019-05-17T16:06:54.230Z,22.40
2019-05-17T16:11:12.648Z,22.20
2019-05-17T16:15:30.838Z,22.10
2019-05-17T16:19:49.002Z,22.00
2019-05-17T16:24:07.196Z,21.80
2019-05-17T16:28:25.785Z,21.70
2019-05-17T16:32:44.080Z,21.70
2019-05-17T16:37:02.162Z,21.60
2019-05-17T16:41:21.139Z,21.60
2019-05-17T16:45:39.217Z,21.60
2019-05-17T16:49:57.981Z,21.60
2019-05-17T16:54:16.272Z,21.60
2019-05-17T16:58:34.683Z,21.50
2019-05-17T17:02:52.782Z,21.50
2019-05-17T17:07:10.964Z,21.40
2019-05-17T17:11:29.152Z,21.20
2019-05-17T17:15:47.745Z,21.00
2019-05-17T17:20:07.397Z,20.90
2019-05-17T17:24:26.360Z,20.80
2019-05-17T17:28:44.950Z,20.70
2019-05-17T17:33:03.360Z,20.50
2019-05-17T17:37:21.468Z,20.40
2019-05-17T17:41:39.500Z,20.30
2019-05-17T17:45:58.077Z,20.20
2019-05-17T17:50:17.062Z,20.00
2019-05-17T17:54:36.096Z,19.90
2019-05-17T17:58:54.260Z,19.90
2019-05-17T18:03:12.445Z,19.80
2019-05-17T18:07:31.728Z,19.80
2019-05-17T18:11:50.372Z,19.80
2019-05-17T18:16:08.757Z,19.80
2019-05-17T18:20:27.084Z,19.80
2019-05-17T18:24:45.491Z,19.70
2019-05-17T18:29:03.578Z,19.70
2019-05-17T18:33:22.663Z,19.70
2019-05-17T18:37:40.755Z,19.60
2019-05-17T18:42:00.770Z,19.50
2019-05-17T18:46:19.025Z,19.50
2019-05-17T18:50:37.415Z,19.50
2019-05-17T18:54:55.488Z,19.40
2019-05-17T18:59:13.840Z,19.30
2019-05-17T19:03:32.197Z,19.30
2019-05-17T19:07:50.294Z,19.30
2019-05-17T19:12:08.714Z,19.20
2019-05-17T19:16:26.760Z,19.20
2019-05-17T19:20:44.938Z,19.10
2019-05-17T19:25:03.109Z,19.00
2019-05-17T19:29:21.176Z,19.00
2019-05-17T19:33:39.234Z,18.90
2019-05-17T19:37:57.726Z,18.80
2019-05-17T19:42:15.789Z,18.80
2019-05-17T19:46:33.979Z,18.70
2019-05-17T19:50:51.984Z,18.70
2019-05-17T19:55:10.708Z,18.70
2019-05-17T19:59:28.803Z,18.60
2019-05-17T20:03:47.143Z,18.60
2019-05-17T20:08:05.843Z,18.60
2019-05-17T20:12:24.983Z,18.60
2019-05-17T20:16:43.115Z,18.60
2019-05-17T20:21:01.385Z,18.60
2019-05-17T20:25:19.904Z,18.60
2019-05-17T20:29:38.070Z,18.60
2019-05-17T20:33:56.417Z,18.70
2019-05-17T20:38:14.580Z,18.70
2019-05-17T20:42:32.765Z,18.70
2019-05-17T20:46:51.449Z,18.70
2019-05-17T20:51:09.831Z,18.70
2019-05-17T20:55:27.959Z,18.70
2019-05-17T20:59:46.121Z,18.70
2019-05-17T21:04:04.814Z,18.70
2019-05-17T21:08:26.044Z,18.70
2019-05-17T21:12:43.432Z,18.60
2019-05-17T21:17:01.945Z,18.60
2019-05-17T21:21:20.735Z,18.40
2019-05-17T21:25:38.970Z,18.30
2019-05-17T21:29:57.212Z,18.10
2019-05-17T21:34:15.252Z,17.90
2019-05-17T21:38:33.472Z,17.90
2019-05-17T21:42:51.550Z,17.80
2019-05-17T21:47:09.574Z,17.80
2019-05-17T21:51:27.937Z,17.80
2019-05-17T21:55:46.295Z,17.80
2019-05-17T22:00:06.256Z,17.90
2019-05-17T22:04:27.138Z,17.90
2019-05-17T22:08:45.589Z,17.90
2019-05-17T22:13:03.761Z,17.90
2019-05-17T22:17:21.842Z,18.00
2019-05-17T22:21:40.387Z,18.00
2019-05-17T22:26:15.870Z,18.10
2019-05-17T22:30:51.545Z,18.00
2019-05-17T22:35:27.115Z,18.00
2019-05-17T22:40:03.188Z,18.00
2019-05-17T22:44:38.803Z,18.00
2019-05-17T22:48:56.821Z,17.90
2019-05-17T22:53:14.916Z,17.90
2019-05-17T22:57:33.332Z,18.00
2019-05-17T23:01:52.030Z,18.00
2019-05-17T23:06:10.204Z,18.00
2019-05-17T23:10:28.272Z,18.00
2019-05-17T23:14:46.812Z,18.00
2019-05-17T23:19:11.764Z,18.00
2019-05-17T23:23:30.544Z,18.00
2019-05-17T23:27:48.684Z,18.00
2019-05-17T23:32:07.349Z,18.00
2019-05-17T23:36:25.394Z,17.90
2019-05-17T23:40:43.442Z,17.90
2019-05-17T23:45:01.800Z,17.90
2019-05-17T23:49:20.840Z,17.90
2019-05-17T23:53:38.871Z,17.90
2019-05-17T23:57:56.927Z,17.90
